Terminal Aerodrome Forecast
Issued by NWS

Home | Current Version | Previous Version | Text Only | Print | Product List | Glossary Off
Versions: 1 2 3 4 5 6 7 8 9 10 11 12 13 14 15 16 17 18 19 20 21 22 23

000
FTUS43 KICT 150528
TAFSLN
TAF
KSLN 150528Z 1506/1606 12010KT P6SM SCT015 BKN100
     FM151000 29010KT P6SM BKN015
     FM151500 31020G28KT P6SM BKN015
     FM151900 32020G28KT P6SM SCT025
     FM160200 33015G23KT P6SM BKN100=

USA.gov is the U.S. government's official web portal to all federal, state and local government web resources and services.